sensor_id;sensor_type;location;lat;lon;timestamp;temperature;humidity
3406;DHT22;10008;48.682;9.016;2022-12-18T00:00:46;-8.30;99.90
3406;DHT22;10008;48.682;9.016;2022-12-18T00:03:14;-8.30;99.90
3406;DHT22;10008;48.682;9.016;2022-12-18T00:05:47;-8.30;99.90
3406;DHT22;10008;48.682;9.016;2022-12-18T00:08:14;-8.30;99.90
3406;DHT22;10008;48.682;9.016;2022-12-18T00:10:40;-8.30;99.90
3406;DHT22;10008;48.682;9.016;2022-12-18T00:13:05;-8.10;99.90
3406;DHT22;10008;48.682;9.016;2022-12-18T00:15:34;-8.20;99.90
3406;DHT22;10008;48.682;9.016;2022-12-18T00:17:59;-8.30;99.90
3406;DHT22;10008;48.682;9.016;2022-12-18T00:20:25;-8.30;99.90
3406;DHT22;10008;48.682;9.016;2022-12-18T00:22:54;-8.40;99.90
3406;DHT22;10008;48.682;9.016;2022-12-18T00:25:20;-8.40;99.90
3406;DHT22;10008;48.682;9.016;2022-12-18T00:27:49;-8.40;99.90
3406;DHT22;10008;48.682;9.016;2022-12-18T00:30:14;-8.40;99.90
3406;DHT22;10008;48.682;9.016;2022-12-18T00:32:40;-8.50;99.90
3406;DHT22;10008;48.682;9.016;2022-12-18T00:35:07;-8.60;99.90
3406;DHT22;10008;48.682;9.016;2022-12-18T00:37:35;-8.70;99.90
3406;DHT22;10008;48.682;9.016;2022-12-18T00:40:02;-8.70;99.90
3406;DHT22;10008;48.682;9.016;2022-12-18T00:42:28;-8.70;99.90
3406;DHT22;10008;48.682;9.016;2022-12-18T00:45:13;-8.20;99.90
3406;DHT22;10008;48.682;9.016;2022-12-18T00:47:38;-8.70;99.90
3406;DHT22;10008;48.682;9.016;2022-12-18T00:50:05;-8.90;99.90
3406;DHT22;10008;48.682;9.016;2022-12-18T00:52:31;-8.80;99.90
3406;DHT22;10008;48.682;9.016;2022-12-18T00:54:57;-8.80;99.90
3406;DHT22;10008;48.682;9.016;2022-12-18T00:57:23;-8.70;99.90
3406;DHT22;10008;48.682;9.016;2022-12-18T00:59:48;-8.70;99.90
3406;DHT22;10008;48.682;9.016;2022-12-18T01:02:14;-8.70;99.90
3406;DHT22;10008;48.682;9.016;2022-12-18T01:04:42;-8.60;99.90
3406;DHT22;10008;48.682;9.016;2022-12-18T01:07:08;-8.80;99.90
3406;DHT22;10008;48.682;9.016;2022-12-18T01:09:34;-8.90;99.90
3406;DHT22;10008;48.682;9.016;2022-12-18T01:12:00;-8.80;99.90
3406;DHT22;10008;48.682;9.016;2022-12-18T01:14:26;-8.70;99.90
3406;DHT22;10008;48.682;9.016;2022-12-18T01:16:52;-8.70;99.90
3406;DHT22;10008;48.682;9.016;2022-12-18T01:19:18;-8.90;99.90
3406;DHT22;10008;48.682;9.016;2022-12-18T01:21:46;-8.90;99.90
3406;DHT22;10008;48.682;9.016;2022-12-18T01:24:12;-9.00;99.90
3406;DHT22;10008;48.682;9.016;2022-12-18T01:26:38;-9.00;99.90
3406;DHT22;10008;48.682;9.016;2022-12-18T01:29:08;-8.40;99.90
3406;DHT22;10008;48.682;9.016;2022-12-18T01:31:33;-9.10;99.90
3406;DHT22;10008;48.682;9.016;2022-12-18T01:34:03;-9.00;99.90
3406;DHT22;10008;48.682;9.016;2022-12-18T01:36:31;-8.90;99.90
3406;DHT22;10008;48.682;9.016;2022-12-18T01:38:59;-9.00;99.90
3406;DHT22;10008;48.682;9.016;2022-12-18T01:41:28;-8.90;99.90
3406;DHT22;10008;48.682;9.016;2022-12-18T01:50:15;-8.90;99.90
3406;DHT22;10008;48.682;9.016;2022-12-18T01:52:43;-8.80;99.90
3406;DHT22;10008;48.682;9.016;2022-12-18T01:55:10;-8.80;99.90
3406;DHT22;10008;48.682;9.016;2022-12-18T01:57:37;-8.70;99.90
3406;DHT22;10008;48.682;9.016;2022-12-18T02:00:13;-8.60;99.90
3406;DHT22;10008;48.682;9.016;2022-12-18T02:02:43;-8.60;99.90
3406;DHT22;10008;48.682;9.016;2022-12-18T02:05:13;-8.50;99.90
3406;DHT22;10008;48.682;9.016;2022-12-18T02:08:04;-8.50;99.90
3406;DHT22;10008;48.682;9.016;2022-12-18T02:10:46;-8.60;99.90
3406;DHT22;10008;48.682;9.016;2022-12-18T02:13:20;-8.50;99.90
3406;DHT22;10008;48.682;9.016;2022-12-18T02:18:26;-8.50;99.90
3406;DHT22;10008;48.682;9.016;2022-12-18T02:21:12;-8.40;99.90
3406;DHT22;10008;48.682;9.016;2022-12-18T02:23:56;-8.20;99.90
3406;DHT22;10008;48.682;9.016;2022-12-18T02:26:27;-8.10;99.90
3406;DHT22;10008;48.682;9.016;2022-12-18T02:29:00;-8.30;99.90
3406;DHT22;10008;48.682;9.016;2022-12-18T02:31:34;-8.30;99.90
3406;DHT22;10008;48.682;9.016;2022-12-18T02:34:03;-8.30;99.90
3406;DHT22;10008;48.682;9.016;2022-12-18T02:36:36;-8.50;99.90
3406;DHT22;10008;48.682;9.016;2022-12-18T02:39:07;-8.70;99.90
3406;DHT22;10008;48.682;9.016;2022-12-18T02:41:36;-8.70;99.90
3406;DHT22;10008;48.682;9.016;2022-12-18T02:44:08;-8.40;99.90
3406;DHT22;10008;48.682;9.016;2022-12-18T02:46:40;-8.60;99.90
3406;DHT22;10008;48.682;9.016;2022-12-18T02:57:36;-8.40;99.90
3406;DHT22;10008;48.682;9.016;2022-12-18T03:00:20;-8.30;99.90
3406;DHT22;10008;48.682;9.016;2022-12-18T03:03:00;-8.20;99.90
3406;DHT22;10008;48.682;9.016;2022-12-18T03:05:37;-8.20;99.90
3406;DHT22;10008;48.682;9.016;2022-12-18T03:08:23;-8.00;99.90
3406;DHT22;10008;48.682;9.016;2022-12-18T03:11:01;-8.00;99.90
3406;DHT22;10008;48.682;9.016;2022-12-18T03:13:46;-7.90;99.90
3406;DHT22;10008;48.682;9.016;2022-12-18T03:16:25;-7.90;99.90
3406;DHT22;10008;48.682;9.016;2022-12-18T03:18:57;-7.90;99.90
3406;DHT22;10008;48.682;9.016;2022-12-18T03:21:29;-7.80;99.90
3406;DHT22;10008;48.682;9.016;2022-12-18T03:23:58;-7.80;99.90
3406;DHT22;10008;48.682;9.016;2022-12-18T03:26:27;-7.80;99.90
3406;DHT22;10008;48.682;9.016;2022-12-18T03:29:02;-7.80;99.90
3406;DHT22;10008;48.682;9.016;2022-12-18T03:31:31;-7.80;99.90
3406;DHT22;10008;48.682;9.016;2022-12-18T03:34:05;-7.80;99.90
3406;DHT22;10008;48.682;9.016;2022-12-18T03:36:40;-7.70;99.90
3406;DHT22;10008;48.682;9.016;2022-12-18T03:39:06;-7.70;99.90
3406;DHT22;10008;48.682;9.016;2022-12-18T03:41:46;-7.70;99.90
3406;DHT22;10008;48.682;9.016;2022-12-18T03:49:38;-7.70;99.90
3406;DHT22;10008;48.682;9.016;2022-12-18T03:52:11;-7.70;99.90
3406;DHT22;10008;48.682;9.016;2022-12-18T03:54:38;-7.70;99.90
3406;DHT22;10008;48.682;9.016;2022-12-18T03:57:19;-7.60;99.90
3406;DHT22;10008;48.682;9.016;2022-12-18T03:59:51;-7.60;99.90
3406;DHT22;10008;48.682;9.016;2022-12-18T04:02:23;-7.70;99.90
3406;DHT22;10008;48.682;9.016;2022-12-18T04:04:52;-7.70;99.90
3406;DHT22;10008;48.682;9.016;2022-12-18T04:07:20;-7.60;99.90
3406;DHT22;10008;48.682;9.016;2022-12-18T04:09:48;-7.70;99.90
3406;DHT22;10008;48.682;9.016;2022-12-18T04:12:14;-7.70;99.90
3406;DHT22;10008;48.682;9.016;2022-12-18T04:14:40;-7.70;99.90
3406;DHT22;10008;48.682;9.016;2022-12-18T04:17:07;-7.70;99.90
3406;DHT22;10008;48.682;9.016;2022-12-18T04:19:33;-7.70;99.90
3406;DHT22;10008;48.682;9.016;2022-12-18T04:22:01;-7.70;99.90
3406;DHT22;10008;48.682;9.016;2022-12-18T04:24:30;-7.70;99.90
3406;DHT22;10008;48.682;9.016;2022-12-18T04:27:16;-7.70;99.90
3406;DHT22;10008;48.682;9.016;2022-12-18T04:29:46;-7.80;99.90
3406;DHT22;10008;48.682;9.016;2022-12-18T04:32:12;-7.80;99.90
3406;DHT22;10008;48.682;9.016;2022-12-18T04:34:39;-7.70;99.90
3406;DHT22;10008;48.682;9.016;2022-12-18T04:37:06;-7.70;99.90
3406;DHT22;10008;48.682;9.016;2022-12-18T04:39:32;-7.80;99.90
3406;DHT22;10008;48.682;9.016;2022-12-18T04:42:03;-7.90;99.90
3406;DHT22;10008;48.682;9.016;2022-12-18T04:44:29;-7.80;99.90
3406;DHT22;10008;48.682;9.016;2022-12-18T04:46:54;-7.80;99.90
3406;DHT22;10008;48.682;9.016;2022-12-18T04:49:21;-7.80;99.90
3406;DHT22;10008;48.682;9.016;2022-12-18T04:51:47;-7.80;99.90
3406;DHT22;10008;48.682;9.016;2022-12-18T04:54:12;-7.90;99.90
3406;DHT22;10008;48.682;9.016;2022-12-18T04:56:38;-7.90;99.90
3406;DHT22;10008;48.682;9.016;2022-12-18T04:59:04;-8.00;99.90
3406;DHT22;10008;48.682;9.016;2022-12-18T05:01:30;-8.00;99.90
3406;DHT22;10008;48.682;9.016;2022-12-18T05:03:58;-8.00;99.90
3406;DHT22;10008;48.682;9.016;2022-12-18T05:06:24;-8.00;99.90
3406;DHT22;10008;48.682;9.016;2022-12-18T05:08:50;-8.00;99.90
3406;DHT22;10008;48.682;9.016;2022-12-18T05:11:16;-8.00;99.90
3406;DHT22;10008;48.682;9.016;2022-12-18T05:13:43;-7.90;99.90
3406;DHT22;10008;48.682;9.016;2022-12-18T05:16:10;-8.00;99.90
3406;DHT22;10008;48.682;9.016;2022-12-18T05:18:36;-8.00;99.90
3406;DHT22;10008;48.682;9.016;2022-12-18T05:21:02;-8.00;99.90
3406;DHT22;10008;48.682;9.016;2022-12-18T05:23:28;-8.00;99.90
3406;DHT22;10008;48.682;9.016;2022-12-18T05:25:56;-8.00;99.90
3406;DHT22;10008;48.682;9.016;2022-12-18T05:28:24;-9.30;99.90
3406;DHT22;10008;48.682;9.016;2022-12-18T05:30:51;-8.00;99.90
3406;DHT22;10008;48.682;9.016;2022-12-18T05:33:18;-8.00;99.90
3406;DHT22;10008;48.682;9.016;2022-12-18T05:35:43;-7.90;99.90
3406;DHT22;10008;48.682;9.016;2022-12-18T05:38:09;-8.00;99.90
3406;DHT22;10008;48.682;9.016;2022-12-18T05:40:35;-8.00;99.90
3406;DHT22;10008;48.682;9.016;2022-12-18T05:43:05;-8.00;99.90
3406;DHT22;10008;48.682;9.016;2022-12-18T05:45:30;-7.90;99.90
3406;DHT22;10008;48.682;9.016;2022-12-18T05:47:56;-8.00;99.90
3406;DHT22;10008;48.682;9.016;2022-12-18T05:50:22;-8.00;99.90
3406;DHT22;10008;48.682;9.016;2022-12-18T05:52:48;-8.10;99.90
3406;DHT22;10008;48.682;9.016;2022-12-18T05:55:14;-8.10;99.90
3406;DHT22;10008;48.682;9.016;2022-12-18T05:57:39;-8.00;99.90
3406;DHT22;10008;48.682;9.016;2022-12-18T06:00:05;-8.00;99.90
3406;DHT22;10008;48.682;9.016;2022-12-18T06:02:37;-8.00;99.90
3406;DHT22;10008;48.682;9.016;2022-12-18T06:05:04;-8.00;99.90
3406;DHT22;10008;48.682;9.016;2022-12-18T06:07:30;-8.00;99.90
3406;DHT22;10008;48.682;9.016;2022-12-18T06:09:56;-8.00;99.90
3406;DHT22;10008;48.682;9.016;2022-12-18T06:12:21;-8.00;99.90
3406;DHT22;10008;48.682;9.016;2022-12-18T06:14:47;-8.10;99.90
3406;DHT22;10008;48.682;9.016;2022-12-18T06:17:13;-8.10;99.90
3406;DHT22;10008;48.682;9.016;2022-12-18T06:19:38;-8.20;99.90
3406;DHT22;10008;48.682;9.016;2022-12-18T06:22:04;-8.10;99.90
3406;DHT22;10008;48.682;9.016;2022-12-18T06:24:30;-8.10;99.90
3406;DHT22;10008;48.682;9.016;2022-12-18T06:26:56;-8.10;99.90
3406;DHT22;10008;48.682;9.016;2022-12-18T06:29:21;-8.10;99.90
3406;DHT22;10008;48.682;9.016;2022-12-18T06:31:47;-8.10;99.90
3406;DHT22;10008;48.682;9.016;2022-12-18T06:34:13;-8.10;99.90
3406;DHT22;10008;48.682;9.016;2022-12-18T06:36:39;-8.10;99.90
3406;DHT22;10008;48.682;9.016;2022-12-18T06:39:04;-8.20;99.90
3406;DHT22;10008;48.682;9.016;2022-12-18T06:41:30;-8.20;99.90
3406;DHT22;10008;48.682;9.016;2022-12-18T06:43:57;-8.20;99.90
3406;DHT22;10008;48.682;9.016;2022-12-18T06:46:23;-8.10;99.90
3406;DHT22;10008;48.682;9.016;2022-12-18T06:48:51;-8.10;99.90
3406;DHT22;10008;48.682;9.016;2022-12-18T06:51:22;-8.20;99.90
3406;DHT22;10008;48.682;9.016;2022-12-18T06:53:49;-8.30;99.90
3406;DHT22;10008;48.682;9.016;2022-12-18T06:56:15;-8.20;99.90
3406;DHT22;10008;48.682;9.016;2022-12-18T06:58:41;-8.30;99.90
3406;DHT22;10008;48.682;9.016;2022-12-18T07:01:09;-8.30;99.90
3406;DHT22;10008;48.682;9.016;2022-12-18T07:03:37;-8.20;99.90
3406;DHT22;10008;48.682;9.016;2022-12-18T07:06:03;-8.30;99.90
3406;DHT22;10008;48.682;9.016;2022-12-18T07:08:30;-8.30;99.90
3406;DHT22;10008;48.682;9.016;2022-12-18T07:10:56;-8.30;99.90
3406;DHT22;10008;48.682;9.016;2022-12-18T07:13:22;-8.30;99.90
3406;DHT22;10008;48.682;9.016;2022-12-18T07:15:47;-8.30;99.90
3406;DHT22;10008;48.682;9.016;2022-12-18T07:18:13;-8.30;99.90
3406;DHT22;10008;48.682;9.016;2022-12-18T07:20:39;-8.30;99.90
3406;DHT22;10008;48.682;9.016;2022-12-18T07:23:05;-8.50;99.90
3406;DHT22;10008;48.682;9.016;2022-12-18T07:25:37;-8.50;99.90
3406;DHT22;10008;48.682;9.016;2022-12-18T07:28:03;-8.50;99.90
3406;DHT22;10008;48.682;9.016;2022-12-18T07:30:29;-8.50;99.90
3406;DHT22;10008;48.682;9.016;2022-12-18T07:32:55;-8.40;99.90
3406;DHT22;10008;48.682;9.016;2022-12-18T07:35:21;-8.30;99.90
3406;DHT22;10008;48.682;9.016;2022-12-18T07:37:46;-8.20;99.90
3406;DHT22;10008;48.682;9.016;2022-12-18T07:40:12;-8.20;99.90
3406;DHT22;10008;48.682;9.016;2022-12-18T07:42:38;-8.10;99.90
3406;DHT22;10008;48.682;9.016;2022-12-18T07:45:04;-7.90;99.90
3406;DHT22;10008;48.682;9.016;2022-12-18T07:47:30;-7.50;99.90
3406;DHT22;10008;48.682;9.016;2022-12-18T07:49:58;-7.80;99.90
3406;DHT22;10008;48.682;9.016;2022-12-18T07:52:24;-7.70;99.90
3406;DHT22;10008;48.682;9.016;2022-12-18T07:54:50;-7.60;99.90
3406;DHT22;10008;48.682;9.016;2022-12-18T07:57:16;-7.50;99.90
3406;DHT22;10008;48.682;9.016;2022-12-18T07:59:42;-7.40;99.90
3406;DHT22;10008;48.682;9.016;2022-12-18T08:02:08;-7.30;99.90
3406;DHT22;10008;48.682;9.016;2022-12-18T08:04:35;-7.20;99.90
3406;DHT22;10008;48.682;9.016;2022-12-18T08:07:01;-7.10;99.90
3406;DHT22;10008;48.682;9.016;2022-12-18T08:09:28;-7.00;99.90
3406;DHT22;10008;48.682;9.016;2022-12-18T08:11:54;-6.90;99.90
3406;DHT22;10008;48.682;9.016;2022-12-18T08:14:19;-6.80;99.90
3406;DHT22;10008;48.682;9.016;2022-12-18T08:16:45;-6.70;99.90
3406;DHT22;10008;48.682;9.016;2022-12-18T08:19:12;-6.60;99.90
3406;DHT22;10008;48.682;9.016;2022-12-18T08:21:41;-6.50;99.90
3406;DHT22;10008;48.682;9.016;2022-12-18T08:24:08;-6.40;99.90
3406;DHT22;10008;48.682;9.016;2022-12-18T08:26:34;-6.30;99.90
3406;DHT22;10008;48.682;9.016;2022-12-18T08:29:00;-6.30;99.90
3406;DHT22;10008;48.682;9.016;2022-12-18T08:31:27;-6.20;99.90
3406;DHT22;10008;48.682;9.016;2022-12-18T08:33:54;-6.10;99.90
3406;DHT22;10008;48.682;9.016;2022-12-18T08:36:20;-6.10;99.90
3406;DHT22;10008;48.682;9.016;2022-12-18T08:38:46;-6.00;99.90
3406;DHT22;10008;48.682;9.016;2022-12-18T08:41:13;-6.00;99.90
3406;DHT22;10008;48.682;9.016;2022-12-18T08:43:40;-6.10;99.90
3406;DHT22;10008;48.682;9.016;2022-12-18T08:46:31;-6.10;99.90
3406;DHT22;10008;48.682;9.016;2022-12-18T08:48:57;-6.10;99.90
3406;DHT22;10008;48.682;9.016;2022-12-18T08:51:23;-6.00;99.90
3406;DHT22;10008;48.682;9.016;2022-12-18T08:53:49;-6.00;99.90
3406;DHT22;10008;48.682;9.016;2022-12-18T08:56:15;-6.00;99.90
3406;DHT22;10008;48.682;9.016;2022-12-18T08:58:41;-5.90;99.90
3406;DHT22;10008;48.682;9.016;2022-12-18T09:01:09;-5.90;99.90
3406;DHT22;10008;48.682;9.016;2022-12-18T09:03:35;-5.80;99.90
3406;DHT22;10008;48.682;9.016;2022-12-18T09:06:01;-5.70;99.90
3406;DHT22;10008;48.682;9.016;2022-12-18T09:08:27;-4.70;99.90
3406;DHT22;10008;48.682;9.016;2022-12-18T09:10:53;-5.40;99.90
3406;DHT22;10008;48.682;9.016;2022-12-18T09:13:19;-5.30;99.90
3406;DHT22;10008;48.682;9.016;2022-12-18T09:15:50;-5.20;99.90
3406;DHT22;10008;48.682;9.016;2022-12-18T09:18:18;-5.10;99.90
3406;DHT22;10008;48.682;9.016;2022-12-18T09:20:44;-4.90;99.90
3406;DHT22;10008;48.682;9.016;2022-12-18T09:23:10;-4.80;99.90
3406;DHT22;10008;48.682;9.016;2022-12-18T09:25:37;-4.70;99.90
3406;DHT22;10008;48.682;9.016;2022-12-18T09:28:14;-4.60;99.90
3406;DHT22;10008;48.682;9.016;2022-12-18T09:30:43;-4.50;99.90
3406;DHT22;10008;48.682;9.016;2022-12-18T09:33:09;-4.60;99.90
3406;DHT22;10008;48.682;9.016;2022-12-18T09:35:39;-4.50;99.90
3406;DHT22;10008;48.682;9.016;2022-12-18T09:38:06;-4.50;99.90
3406;DHT22;10008;48.682;9.016;2022-12-18T09:40:41;-4.30;99.90
3406;DHT22;10008;48.682;9.016;2022-12-18T09:43:18;-3.30;99.90
3406;DHT22;10008;48.682;9.016;2022-12-18T09:45:47;-4.20;99.90
3406;DHT22;10008;48.682;9.016;2022-12-18T09:48:34;-4.00;99.90
3406;DHT22;10008;48.682;9.016;2022-12-18T09:51:05;-3.90;99.90
3406;DHT22;10008;48.682;9.016;2022-12-18T09:53:37;-3.70;99.90
3406;DHT22;10008;48.682;9.016;2022-12-18T09:56:04;-3.60;99.90
3406;DHT22;10008;48.682;9.016;2022-12-18T09:58:44;-3.60;99.90
3406;DHT22;10008;48.682;9.016;2022-12-18T10:01:18;-3.50;99.90
3406;DHT22;10008;48.682;9.016;2022-12-18T10:03:46;-3.50;99.90
3406;DHT22;10008;48.682;9.016;2022-12-18T10:06:32;-3.50;99.90
3406;DHT22;10008;48.682;9.016;2022-12-18T10:09:09;-3.50;99.90
3406;DHT22;10008;48.682;9.016;2022-12-18T10:11:48;-3.50;99.90
3406;DHT22;10008;48.682;9.016;2022-12-18T10:19:54;-3.50;99.90
3406;DHT22;10008;48.682;9.016;2022-12-18T10:27:40;-3.40;99.90
3406;DHT22;10008;48.682;9.016;2022-12-18T10:30:18;-3.30;99.90
3406;DHT22;10008;48.682;9.016;2022-12-18T10:32:44;-3.20;99.90
3406;DHT22;10008;48.682;9.016;2022-12-18T10:35:24;-3.10;99.90
3406;DHT22;10008;48.682;9.016;2022-12-18T10:41:05;-2.80;99.90
3406;DHT22;10008;48.682;9.016;2022-12-18T10:43:36;-2.40;99.90
3406;DHT22;10008;48.682;9.016;2022-12-18T10:48:30;-1.30;99.90
3406;DHT22;10008;48.682;9.016;2022-12-18T10:50:56;-2.30;99.90
3406;DHT22;10008;48.682;9.016;2022-12-18T10:53:25;-2.20;99.90
3406;DHT22;10008;48.682;9.016;2022-12-18T10:55:53;-1.30;99.90
3406;DHT22;10008;48.682;9.016;2022-12-18T11:01:17;-1.90;99.90
3406;DHT22;10008;48.682;9.016;2022-12-18T11:06:22;-1.70;99.90
3406;DHT22;10008;48.682;9.016;2022-12-18T11:14:42;-1.60;99.90
3406;DHT22;10008;48.682;9.016;2022-12-18T11:17:38;-1.60;99.90
3406;DHT22;10008;48.682;9.016;2022-12-18T11:20:18;-1.60;99.90
3406;DHT22;10008;48.682;9.016;2022-12-18T11:23:04;-1.60;99.90
3406;DHT22;10008;48.682;9.016;2022-12-18T11:25:32;-1.50;99.90
3406;DHT22;10008;48.682;9.016;2022-12-18T11:28:04;-0.40;99.90
3406;DHT22;10008;48.682;9.016;2022-12-18T11:30:33;-1.50;99.90
3406;DHT22;10008;48.682;9.016;2022-12-18T11:33:08;-1.40;99.90
3406;DHT22;10008;48.682;9.016;2022-12-18T11:38:28;-1.30;99.90
3406;DHT22;10008;48.682;9.016;2022-12-18T11:44:02;-1.00;99.90
3406;DHT22;10008;48.682;9.016;2022-12-18T11:46:37;-1.10;99.90
3406;DHT22;10008;48.682;9.016;2022-12-18T11:49:14;-1.10;99.90
3406;DHT22;10008;48.682;9.016;2022-12-18T11:51:48;-1.10;99.90
3406;DHT22;10008;48.682;9.016;2022-12-18T11:54:16;-1.00;99.90
3406;DHT22;10008;48.682;9.016;2022-12-18T11:56:53;-1.00;99.90
3406;DHT22;10008;48.682;9.016;2022-12-18T11:59:55;-0.90;99.90
3406;DHT22;10008;48.682;9.016;2022-12-18T12:10:52;-0.40;99.90
3406;DHT22;10008;48.682;9.016;2022-12-18T12:13:37;-0.50;99.90
3406;DHT22;10008;48.682;9.016;2022-12-18T12:16:28;-0.50;99.90
3406;DHT22;10008;48.682;9.016;2022-12-18T12:19:15;-0.50;99.90
3406;DHT22;10008;48.682;9.016;2022-12-18T12:28:07;-0.30;99.90
3406;DHT22;10008;48.682;9.016;2022-12-18T12:33:27;0.00;99.90
3406;DHT22;10008;48.682;9.016;2022-12-18T12:38:56;0.20;99.90
3406;DHT22;10008;48.682;9.016;2022-12-18T12:41:30;0.70;99.90
3406;DHT22;10008;48.682;9.016;2022-12-18T12:44:25;0.80;99.90
3406;DHT22;10008;48.682;9.016;2022-12-18T12:46:56;0.90;99.90
3406;DHT22;10008;48.682;9.016;2022-12-18T12:49:26;1.60;99.90
3406;DHT22;10008;48.682;9.016;2022-12-18T12:52:12;0.90;99.90
3406;DHT22;10008;48.682;9.016;2022-12-18T12:54:39;0.80;99.90
3406;DHT22;10008;48.682;9.016;2022-12-18T13:00:05;0.80;99.90
3406;DHT22;10008;48.682;9.016;2022-12-18T13:05:40;1.50;99.90
3406;DHT22;10008;48.682;9.016;2022-12-18T13:08:11;1.20;99.90
3406;DHT22;10008;48.682;9.016;2022-12-18T13:10:43;1.40;99.90
3406;DHT22;10008;48.682;9.016;2022-12-18T13:13:13;2.60;99.90
3406;DHT22;10008;48.682;9.016;2022-12-18T13:15:47;1.90;99.90
3406;DHT22;10008;48.682;9.016;2022-12-18T13:26:00;1.30;99.90
3406;DHT22;10008;48.682;9.016;2022-12-18T13:34:23;1.30;99.90
3406;DHT22;10008;48.682;9.016;2022-12-18T13:36:50;1.30;99.90
3406;DHT22;10008;48.682;9.016;2022-12-18T13:44:37;1.30;99.90
3406;DHT22;10008;48.682;9.016;2022-12-18T13:47:25;1.90;99.90
3406;DHT22;10008;48.682;9.016;2022-12-18T13:49:51;1.50;99.90
3406;DHT22;10008;48.682;9.016;2022-12-18T13:52:23;1.60;99.90
3406;DHT22;10008;48.682;9.016;2022-12-18T13:54:57;0.80;99.90
3406;DHT22;10008;48.682;9.016;2022-12-18T13:57:42;0.80;99.90
3406;DHT22;10008;48.682;9.016;2022-12-18T14:00:28;0.70;99.90
3406;DHT22;10008;48.682;9.016;2022-12-18T14:02:56;1.30;99.90
3406;DHT22;10008;48.682;9.016;2022-12-18T14:05:26;0.60;99.90
3406;DHT22;10008;48.682;9.016;2022-12-18T14:07:53;0.50;99.90
3406;DHT22;10008;48.682;9.016;2022-12-18T14:10:19;0.20;99.90
3406;DHT22;10008;48.682;9.016;2022-12-18T14:12:48;0.00;99.90
3406;DHT22;10008;48.682;9.016;2022-12-18T14:20:28;-0.20;99.90
3406;DHT22;10008;48.682;9.016;2022-12-18T14:22:55;-0.30;99.90
3406;DHT22;10008;48.682;9.016;2022-12-18T14:25:22;-0.30;99.90
3406;DHT22;10008;48.682;9.016;2022-12-18T14:36:00;-0.40;99.90
3406;DHT22;10008;48.682;9.016;2022-12-18T14:38:37;-0.50;99.90
3406;DHT22;10008;48.682;9.016;2022-12-18T14:43:33;-0.60;99.90
3406;DHT22;10008;48.682;9.016;2022-12-18T14:46:01;-0.70;99.90
3406;DHT22;10008;48.682;9.016;2022-12-18T14:53:37;-0.80;99.90
3406;DHT22;10008;48.682;9.016;2022-12-18T14:56:15;-0.90;99.90
3406;DHT22;10008;48.682;9.016;2022-12-18T14:58:45;-1.00;99.90
3406;DHT22;10008;48.682;9.016;2022-12-18T15:01:22;-1.10;99.90
3406;DHT22;10008;48.682;9.016;2022-12-18T15:03:50;-1.20;99.90
3406;DHT22;10008;48.682;9.016;2022-12-18T15:06:28;-1.30;99.90
3406;DHT22;10008;48.682;9.016;2022-12-18T15:08:54;-1.40;99.90
3406;DHT22;10008;48.682;9.016;2022-12-18T15:16:55;-1.60;99.90
3406;DHT22;10008;48.682;9.016;2022-12-18T15:19:24;-1.70;99.90
3406;DHT22;10008;48.682;9.016;2022-12-18T15:21:51;-1.70;99.90
3406;DHT22;10008;48.682;9.016;2022-12-18T15:24:26;-1.80;99.90
3406;DHT22;10008;48.682;9.016;2022-12-18T15:26:52;-1.90;99.90
3406;DHT22;10008;48.682;9.016;2022-12-18T15:29:22;-1.90;99.90
3406;DHT22;10008;48.682;9.016;2022-12-18T15:32:01;-1.90;99.90
3406;DHT22;10008;48.682;9.016;2022-12-18T15:34:27;-2.00;99.90
3406;DHT22;10008;48.682;9.016;2022-12-18T15:36:53;-2.10;99.90
3406;DHT22;10008;48.682;9.016;2022-12-18T15:39:19;-2.10;99.90
3406;DHT22;10008;48.682;9.016;2022-12-18T15:41:45;-2.20;99.90
3406;DHT22;10008;48.682;9.016;2022-12-18T15:44:32;-2.20;99.90
3406;DHT22;10008;48.682;9.016;2022-12-18T15:46:59;-2.30;99.90
3406;DHT22;10008;48.682;9.016;2022-12-18T15:49:25;-2.40;99.90
3406;DHT22;10008;48.682;9.016;2022-12-18T15:51:57;-2.40;99.90
3406;DHT22;10008;48.682;9.016;2022-12-18T15:54:24;-2.50;99.90
3406;DHT22;10008;48.682;9.016;2022-12-18T15:57:11;-2.50;99.90
3406;DHT22;10008;48.682;9.016;2022-12-18T15:59:54;-2.50;99.90
3406;DHT22;10008;48.682;9.016;2022-12-18T16:02:22;-2.60;99.90
3406;DHT22;10008;48.682;9.016;2022-12-18T16:04:49;-2.70;99.90
3406;DHT22;10008;48.682;9.016;2022-12-18T16:07:15;-2.70;99.90
3406;DHT22;10008;48.682;9.016;2022-12-18T16:09:41;-2.70;99.90
3406;DHT22;10008;48.682;9.016;2022-12-18T16:12:18;-2.70;99.90
3406;DHT22;10008;48.682;9.016;2022-12-18T16:14:44;-2.70;99.90
3406;DHT22;10008;48.682;9.016;2022-12-18T16:17:12;-2.70;99.90
3406;DHT22;10008;48.682;9.016;2022-12-18T16:19:38;-2.70;99.90
3406;DHT22;10008;48.682;9.016;2022-12-18T16:22:04;-2.70;99.90
3406;DHT22;10008;48.682;9.016;2022-12-18T16:24:32;-2.60;99.90
3406;DHT22;10008;48.682;9.016;2022-12-18T16:26:59;-1.40;99.90
3406;DHT22;10008;48.682;9.016;2022-12-18T16:29:27;-2.50;99.90
3406;DHT22;10008;48.682;9.016;2022-12-18T16:31:54;-2.50;99.90
3406;DHT22;10008;48.682;9.016;2022-12-18T16:34:27;-2.50;99.90
3406;DHT22;10008;48.682;9.016;2022-12-18T16:36:58;-2.50;99.90
3406;DHT22;10008;48.682;9.016;2022-12-18T16:39:25;-2.50;99.90
3406;DHT22;10008;48.682;9.016;2022-12-18T16:41:51;-2.50;99.90
3406;DHT22;10008;48.682;9.016;2022-12-18T16:44:17;-2.50;99.90
3406;DHT22;10008;48.682;9.016;2022-12-18T16:46:44;-2.40;99.90
3406;DHT22;10008;48.682;9.016;2022-12-18T16:49:16;-2.40;99.90
3406;DHT22;10008;48.682;9.016;2022-12-18T16:51:42;-2.50;99.90
3406;DHT22;10008;48.682;9.016;2022-12-18T16:54:08;-2.40;99.90
3406;DHT22;10008;48.682;9.016;2022-12-18T16:56:34;-2.40;99.90
3406;DHT22;10008;48.682;9.016;2022-12-18T16:59:02;-2.40;99.90
3406;DHT22;10008;48.682;9.016;2022-12-18T17:01:29;-2.40;99.90
3406;DHT22;10008;48.682;9.016;2022-12-18T17:04:00;-2.30;99.90
3406;DHT22;10008;48.682;9.016;2022-12-18T17:06:29;-2.30;99.90
3406;DHT22;10008;48.682;9.016;2022-12-18T17:08:57;-2.20;99.90
3406;DHT22;10008;48.682;9.016;2022-12-18T17:11:28;-2.20;99.90
3406;DHT22;10008;48.682;9.016;2022-12-18T17:13:54;-1.40;99.90
3406;DHT22;10008;48.682;9.016;2022-12-18T17:16:20;-2.10;99.90
3406;DHT22;10008;48.682;9.016;2022-12-18T17:18:48;-2.20;99.90
3406;DHT22;10008;48.682;9.016;2022-12-18T17:21:14;-2.20;99.90
3406;DHT22;10008;48.682;9.016;2022-12-18T17:23:41;-2.20;99.90
3406;DHT22;10008;48.682;9.016;2022-12-18T17:26:08;-2.20;99.90
3406;DHT22;10008;48.682;9.016;2022-12-18T17:28:36;-2.10;99.90
3406;DHT22;10008;48.682;9.016;2022-12-18T17:31:20;-2.00;99.90
3406;DHT22;10008;48.682;9.016;2022-12-18T17:33:46;-2.00;99.90
3406;DHT22;10008;48.682;9.016;2022-12-18T17:36:12;-1.90;99.90
3406;DHT22;10008;48.682;9.016;2022-12-18T17:38:42;-1.90;99.90
3406;DHT22;10008;48.682;9.016;2022-12-18T17:41:09;-0.70;99.90
3406;DHT22;10008;48.682;9.016;2022-12-18T17:43:35;-1.80;99.90
3406;DHT22;10008;48.682;9.016;2022-12-18T17:46:09;-1.80;99.90
3406;DHT22;10008;48.682;9.016;2022-12-18T17:48:34;-2.00;99.90
3406;DHT22;10008;48.682;9.016;2022-12-18T17:51:02;-2.00;99.90
3406;DHT22;10008;48.682;9.016;2022-12-18T17:53:28;-2.00;99.90
3406;DHT22;10008;48.682;9.016;2022-12-18T17:55:55;-1.90;99.90
3406;DHT22;10008;48.682;9.016;2022-12-18T17:58:22;-2.00;99.90
3406;DHT22;10008;48.682;9.016;2022-12-18T18:00:47;-1.90;99.90
3406;DHT22;10008;48.682;9.016;2022-12-18T18:03:13;-1.90;99.90
3406;DHT22;10008;48.682;9.016;2022-12-18T18:05:39;-1.90;99.90
3406;DHT22;10008;48.682;9.016;2022-12-18T18:08:05;-1.90;99.90
3406;DHT22;10008;48.682;9.016;2022-12-18T18:10:31;-1.90;99.90